createdAt,value
2024-05-09T00:00:35.560Z,10.96
2024-05-09T00:03:07.226Z,10.95
2024-05-09T00:05:34.159Z,10.96
2024-05-09T00:08:01.045Z,10.98
2024-05-09T00:10:35.405Z,10.96
2024-05-09T00:13:04.924Z,10.95
2024-05-09T00:15:33.171Z,10.95
2024-05-09T00:18:00.073Z,10.93
2024-05-09T00:20:35.102Z,10.92
2024-05-09T00:23:06.864Z,10.92
2024-05-09T00:25:33.862Z,10.90
2024-05-09T00:28:00.419Z,10.91
2024-05-09T00:30:33.607Z,10.90
2024-05-09T00:33:03.815Z,10.88
2024-05-09T00:35:31.012Z,10.91
2024-05-09T00:37:57.824Z,10.90
2024-05-09T00:40:35.137Z,10.88
2024-05-09T00:43:06.346Z,10.84
2024-05-09T00:45:34.799Z,10.86
2024-05-09T00:48:04.859Z,10.84
2024-05-09T00:50:36.603Z,10.75
2024-05-09T00:53:06.716Z,10.74
2024-05-09T00:55:37.653Z,10.69
2024-05-09T00:58:05.193Z,10.67
2024-05-09T01:00:38.514Z,10.67
2024-05-09T01:03:08.205Z,10.66
2024-05-09T01:05:35.732Z,10.62
2024-05-09T01:08:03.119Z,10.60
2024-05-09T01:10:34.479Z,10.61
2024-05-09T01:13:03.584Z,10.59
2024-05-09T01:15:30.450Z,10.55
2024-05-09T01:17:58.250Z,10.52
2024-05-09T01:20:36.545Z,10.45
2024-05-09T01:23:08.827Z,10.51
2024-05-09T01:25:35.662Z,10.51
2024-05-09T01:28:02.334Z,10.51
2024-05-09T01:30:34.605Z,10.51
2024-05-09T01:33:04.183Z,10.51
2024-05-09T01:35:31.218Z,10.48
2024-05-09T01:37:57.938Z,10.45
2024-05-09T01:40:33.550Z,10.45
2024-05-09T01:43:04.897Z,10.41
2024-05-09T01:45:31.697Z,10.35
2024-05-09T01:47:58.794Z,10.30
2024-05-09T01:50:36.994Z,10.32
2024-05-09T01:53:07.567Z,10.32
2024-05-09T01:55:34.286Z,10.29
2024-05-09T01:58:00.879Z,10.27
2024-05-09T02:00:37.616Z,10.26
2024-05-09T02:03:10.003Z,10.18
2024-05-09T02:05:37.679Z,10.21
2024-05-09T02:08:05.302Z,10.21
2024-05-09T02:10:33.058Z,10.20
2024-05-09T02:13:00.108Z,10.17
2024-05-09T02:15:26.891Z,10.18
2024-05-09T02:17:53.680Z,10.21
2024-05-09T02:20:30.097Z,10.21
2024-05-09T02:23:03.815Z,10.22
2024-05-09T02:25:30.953Z,10.22
2024-05-09T02:27:57.497Z,10.20
2024-05-09T02:30:31.069Z,10.18
2024-05-09T02:33:05.844Z,10.12
2024-05-09T02:35:32.775Z,10.13
2024-05-09T02:37:59.765Z,10.10
2024-05-09T02:40:35.451Z,10.10
2024-05-09T02:43:05.087Z,10.07
2024-05-09T02:45:31.807Z,10.02
2024-05-09T02:47:58.731Z,9.99
2024-05-09T02:50:33.718Z,9.95
2024-05-09T02:53:05.135Z,9.91
2024-05-09T02:55:32.059Z,9.90
2024-05-09T02:57:58.690Z,9.86
2024-05-09T03:00:34.465Z,9.86
2024-05-09T03:03:07.142Z,9.85
2024-05-09T03:05:34.187Z,9.80
2024-05-09T03:08:01.033Z,9.76
2024-05-09T03:10:29.237Z,9.69
2024-05-09T03:13:09.315Z,9.64
2024-05-09T03:15:36.648Z,9.67
2024-05-09T03:18:04.537Z,9.68
2024-05-09T03:20:34.843Z,9.66
2024-05-09T03:23:03.391Z,9.63
2024-05-09T03:25:30.244Z,9.60
2024-05-09T03:27:56.891Z,9.58
2024-05-09T03:30:38.026Z,9.58
2024-05-09T03:33:18.057Z,9.57
2024-05-09T03:35:46.652Z,9.54
2024-05-09T03:38:14.112Z,9.50
2024-05-09T03:40:47.801Z,9.49
2024-05-09T03:43:14.861Z,9.48
2024-05-09T03:45:45.519Z,9.45
2024-05-09T03:48:12.762Z,9.42
2024-05-09T03:50:39.694Z,9.40
2024-05-09T03:53:11.291Z,9.36
2024-05-09T03:55:38.180Z,9.36
2024-05-09T03:58:05.089Z,9.37
2024-05-09T04:00:37.750Z,9.36
2024-05-09T04:03:09.304Z,9.34
2024-05-09T04:05:39.773Z,9.31
2024-05-09T04:08:07.387Z,9.34
2024-05-09T04:10:35.109Z,9.30
2024-05-09T04:13:03.462Z,9.28
2024-05-09T04:15:30.637Z,9.24
2024-05-09T04:17:57.497Z,9.22
2024-05-09T04:20:33.714Z,9.13
2024-05-09T04:23:06.239Z,9.15
2024-05-09T04:25:33.124Z,9.12
2024-05-09T04:27:59.711Z,9.16
2024-05-09T04:30:34.775Z,9.21
2024-05-09T04:33:07.134Z,9.27
2024-05-09T04:35:35.299Z,9.25
2024-05-09T04:38:02.076Z,9.29
2024-05-09T04:40:33.884Z,9.39
2024-05-09T04:43:03.891Z,9.39
2024-05-09T04:45:30.622Z,9.43
2024-05-09T04:47:57.679Z,9.43
2024-05-09T04:50:33.897Z,9.49
2024-05-09T04:53:04.909Z,9.58
2024-05-09T04:55:32.294Z,9.59
2024-05-09T04:57:58.860Z,9.62
2024-05-09T05:00:34.445Z,9.67
2024-05-09T05:03:13.809Z,9.69
2024-05-09T05:05:42.765Z,9.69
2024-05-09T05:08:13.379Z,9.71
2024-05-09T05:10:40.833Z,9.74
2024-05-09T05:13:17.909Z,9.76
2024-05-09T05:15:57.266Z,9.78
2024-05-09T05:18:25.960Z,9.82
2024-05-09T05:20:53.506Z,9.88
2024-05-09T05:23:21.606Z,9.95
2024-05-09T05:25:49.965Z,10.02
2024-05-09T05:28:17.488Z,10.10
2024-05-09T05:30:44.568Z,10.26
2024-05-09T05:33:16.060Z,10.38
2024-05-09T05:35:43.268Z,10.48
2024-05-09T05:38:11.000Z,10.56
2024-05-09T05:40:39.063Z,10.68
2024-05-09T05:43:08.661Z,10.80
2024-05-09T05:45:35.662Z,10.91
2024-05-09T05:48:06.609Z,11.00
2024-05-09T05:50:36.940Z,11.09
2024-05-09T05:53:09.175Z,11.22
2024-05-09T05:55:37.444Z,11.34
2024-05-09T05:58:04.441Z,11.47
2024-05-09T06:00:38.144Z,11.60
2024-05-09T06:03:07.587Z,11.75
2024-05-09T06:05:35.858Z,11.90
2024-05-09T06:08:02.569Z,12.03
2024-05-09T06:10:37.485Z,12.22
2024-05-09T06:13:07.084Z,12.36
2024-05-09T06:15:33.750Z,12.50
2024-05-09T06:18:00.586Z,12.68
2024-05-09T06:20:35.051Z,12.85
2024-05-09T06:23:04.889Z,13.06
2024-05-09T06:25:31.848Z,13.24
2024-05-09T06:28:00.340Z,13.37
2024-05-09T06:30:36.570Z,13.50
2024-05-09T06:33:07.693Z,13.67
2024-05-09T06:35:34.977Z,13.84
2024-05-09T06:38:01.882Z,14.00
2024-05-09T06:40:36.535Z,14.17
2024-05-09T06:43:10.136Z,14.31
2024-05-09T06:45:37.033Z,14.35
2024-05-09T06:48:04.018Z,14.51
2024-05-09T06:50:36.861Z,14.68
2024-05-09T06:53:05.149Z,14.77
2024-05-09T06:55:31.869Z,14.94
2024-05-09T06:57:58.406Z,15.03
2024-05-09T07:00:30.938Z,15.19
2024-05-09T07:03:13.648Z,15.24
2024-05-09T07:05:43.052Z,15.50
2024-05-09T07:08:09.917Z,15.62
2024-05-09T07:10:37.187Z,15.56
2024-05-09T07:13:14.028Z,15.73
2024-05-09T07:15:41.849Z,15.89
2024-05-09T07:18:13.215Z,16.06
2024-05-09T07:20:40.300Z,16.16
2024-05-09T07:23:11.171Z,16.25
2024-05-09T07:25:38.615Z,16.36
2024-05-09T07:28:05.857Z,16.53
2024-05-09T07:30:34.496Z,16.67
2024-05-09T07:33:03.099Z,16.76
2024-05-09T07:35:30.902Z,16.97
2024-05-09T07:37:57.786Z,17.11
2024-05-09T07:40:32.737Z,17.13
2024-05-09T07:43:07.646Z,17.30
2024-05-09T07:52:32.483Z,17.51
2024-05-09T07:53:39.604Z,17.65
2024-05-09T07:56:11.877Z,17.83
2024-05-09T07:58:39.366Z,18.07
2024-05-09T08:01:06.245Z,18.18
2024-05-09T08:03:33.235Z,18.35
2024-05-09T08:06:00.038Z,18.37
2024-05-09T08:08:26.649Z,18.51
2024-05-09T08:10:53.447Z,18.57
2024-05-09T08:13:20.297Z,18.72
2024-05-09T08:15:46.991Z,18.71
2024-05-09T08:18:13.791Z,18.64
2024-05-09T08:20:41.997Z,18.73
2024-05-09T08:23:08.768Z,19.03
2024-05-09T08:25:35.360Z,19.24
2024-05-09T08:28:04.610Z,19.40
2024-05-09T08:30:36.725Z,19.57
2024-05-09T08:33:05.863Z,19.73
2024-05-09T08:35:33.194Z,19.69
2024-05-09T08:37:59.907Z,19.81
2024-05-09T08:40:34.077Z,20.07
2024-05-09T08:43:06.751Z,20.08
2024-05-09T08:45:34.885Z,19.69
2024-05-09T08:48:05.778Z,19.92
2024-05-09T08:50:38.774Z,20.06
2024-05-09T08:53:07.843Z,20.20
2024-05-09T08:55:37.369Z,20.42
2024-05-09T08:58:07.562Z,20.49
2024-05-09T09:00:37.425Z,20.27
2024-05-09T09:03:09.361Z,20.56
2024-05-09T09:05:39.095Z,20.77
2024-05-09T09:08:08.235Z,21.02
2024-05-09T09:10:35.751Z,21.00
2024-05-09T09:13:04.758Z,21.00
2024-05-09T09:15:32.111Z,20.88
2024-05-09T09:18:02.137Z,21.03
2024-05-09T09:20:35.816Z,21.11
2024-05-09T09:23:04.531Z,21.14
2024-05-09T09:25:31.536Z,21.20
2024-05-09T09:27:58.806Z,21.67
2024-05-09T09:30:36.195Z,21.58
2024-05-09T09:33:08.101Z,21.11
2024-05-09T09:35:36.115Z,20.98
2024-05-09T09:38:03.449Z,20.45
2024-05-09T09:40:41.094Z,19.74
2024-05-09T09:43:18.052Z,19.47
2024-05-09T09:45:46.381Z,20.28
2024-05-09T09:48:14.766Z,20.78
2024-05-09T09:50:42.240Z,21.09
2024-05-09T09:53:10.672Z,21.31
2024-05-09T09:55:38.012Z,21.72
2024-05-09T09:58:06.398Z,22.30
2024-05-09T10:00:34.535Z,22.52
2024-05-09T10:03:02.218Z,22.71
2024-05-09T10:05:30.011Z,22.87
2024-05-09T10:07:58.386Z,22.76
2024-05-09T10:10:31.987Z,22.34
2024-05-09T10:13:03.698Z,22.38
2024-05-09T10:15:42.720Z,22.56
2024-05-09T10:18:10.529Z,23.00
2024-05-09T10:20:46.830Z,22.99
2024-05-09T10:23:36.231Z,23.17
2024-05-09T10:26:06.423Z,23.31
2024-05-09T10:28:37.904Z,22.41
2024-05-09T10:31:12.965Z,21.67
2024-05-09T10:33:51.855Z,21.87
2024-05-09T10:36:23.744Z,22.03
2024-05-09T10:38:52.151Z,21.57
2024-05-09T10:41:19.683Z,20.98
2024-05-09T10:43:47.296Z,20.61
2024-05-09T10:46:18.867Z,20.51
2024-05-09T10:48:45.870Z,20.44
2024-05-09T10:51:13.421Z,20.29
2024-05-09T10:53:44.528Z,20.47
2024-05-09T10:56:13.007Z,20.84
2024-05-09T10:58:39.542Z,21.07
2024-05-09T11:01:07.395Z,21.22
2024-05-09T11:03:35.534Z,21.25
2024-05-09T11:06:02.692Z,21.25
2024-05-09T11:08:36.903Z,21.39
2024-05-09T11:11:07.447Z,21.20
2024-05-09T11:13:39.218Z,20.85
2024-05-09T11:16:20.772Z,20.82
2024-05-09T11:18:58.087Z,20.91
2024-05-09T11:21:25.320Z,20.87
2024-05-09T11:23:52.344Z,20.94
2024-05-09T11:26:21.390Z,21.26
2024-05-09T11:28:48.221Z,21.20
2024-05-09T11:31:14.888Z,21.18
2024-05-09T11:33:44.579Z,21.12
2024-05-09T11:36:11.372Z,20.92
2024-05-09T11:38:37.994Z,20.87
2024-05-09T11:41:05.501Z,20.88
2024-05-09T11:43:32.983Z,20.81
2024-05-09T11:46:00.281Z,20.71
2024-05-09T11:48:27.419Z,20.73
2024-05-09T11:50:55.533Z,20.83
2024-05-09T11:53:22.429Z,20.96
2024-05-09T11:55:49.116Z,21.04
2024-05-09T11:58:17.804Z,21.00
2024-05-09T12:00:45.266Z,20.89
2024-05-09T12:03:11.992Z,21.02
2024-05-09T12:05:38.680Z,21.13
2024-05-09T12:08:06.528Z,21.10
2024-05-09T12:10:35.610Z,21.02
2024-05-09T12:13:05.073Z,21.11
2024-05-09T12:15:33.872Z,21.33
2024-05-09T12:18:03.358Z,21.43
2024-05-09T12:20:36.695Z,21.41
2024-05-09T12:23:05.918Z,21.51
2024-05-09T12:25:32.531Z,21.54
2024-05-09T12:27:59.540Z,21.52
2024-05-09T12:30:35.303Z,21.67
2024-05-09T12:33:06.037Z,21.81
2024-05-09T12:35:32.989Z,21.70
2024-05-09T12:37:59.673Z,21.61
2024-05-09T12:40:34.471Z,21.59
2024-05-09T12:43:04.834Z,21.70
2024-05-09T12:45:31.946Z,21.73
2024-05-09T12:47:58.926Z,21.62
2024-05-09T12:50:31.981Z,21.83
2024-05-09T12:53:00.950Z,22.00
2024-05-09T12:55:28.540Z,22.12
2024-05-09T12:57:57.304Z,22.23
2024-05-09T13:00:31.079Z,22.27
2024-05-09T13:03:00.726Z,22.45
2024-05-09T13:05:27.797Z,22.47
2024-05-09T13:07:56.217Z,22.53
2024-05-09T13:10:29.408Z,22.48
2024-05-09T13:12:59.575Z,22.10
2024-05-09T13:15:26.536Z,21.87
2024-05-09T13:17:53.473Z,21.63
2024-05-09T13:20:29.027Z,21.46
2024-05-09T13:23:02.162Z,21.26
2024-05-09T13:25:28.859Z,21.09
2024-05-09T13:27:56.330Z,20.85
2024-05-09T13:30:29.748Z,20.65
2024-05-09T13:33:05.619Z,20.53
2024-05-09T13:35:34.378Z,20.45
2024-05-09T13:38:01.980Z,20.31
2024-05-09T13:40:33.623Z,20.30
2024-05-09T13:43:03.323Z,20.24
2024-05-09T13:45:30.137Z,20.16
2024-05-09T13:47:57.229Z,20.11
2024-05-09T13:50:32.931Z,20.04
2024-05-09T13:53:02.697Z,20.00
2024-05-09T13:55:29.282Z,19.92
2024-05-09T13:57:56.205Z,19.90
2024-05-09T14:00:37.321Z,19.88
2024-05-09T14:03:10.160Z,19.84
2024-05-09T14:05:36.993Z,19.81
2024-05-09T14:08:04.172Z,19.87
2024-05-09T14:10:32.137Z,19.87
2024-05-09T14:13:00.791Z,19.84
2024-05-09T14:15:27.814Z,19.88
2024-05-09T14:17:55.400Z,19.89
2024-05-09T14:20:30.355Z,19.98
2024-05-09T14:22:59.373Z,20.03
2024-05-09T14:25:28.394Z,20.10
2024-05-09T14:27:56.102Z,20.16
2024-05-09T14:30:30.553Z,20.24
2024-05-09T14:33:03.465Z,20.24
2024-05-09T14:35:30.175Z,20.37
2024-05-09T14:37:56.876Z,20.49
2024-05-09T14:40:36.636Z,20.60
2024-05-09T14:43:08.471Z,20.67
2024-05-09T14:45:35.541Z,20.79
2024-05-09T14:48:03.333Z,20.90
2024-05-09T14:50:36.018Z,21.14
2024-05-09T14:53:06.769Z,21.44
2024-05-09T14:55:35.719Z,21.57
2024-05-09T14:58:02.879Z,21.69
2024-05-09T15:00:35.428Z,21.43
2024-05-09T15:03:03.737Z,21.47
2024-05-09T15:05:30.516Z,21.49
2024-05-09T15:07:58.023Z,21.39
2024-05-09T15:10:33.667Z,21.95
2024-05-09T15:13:02.940Z,22.13
2024-05-09T15:15:29.916Z,22.04
2024-05-09T15:17:56.993Z,21.97
2024-05-09T15:20:31.276Z,21.95
2024-05-09T15:23:02.168Z,21.73
2024-05-09T15:25:28.978Z,21.47
2024-05-09T15:27:55.722Z,21.33
2024-05-09T15:32:51.931Z,21.19
2024-05-09T15:35:18.621Z,21.04
2024-05-09T15:37:48.176Z,20.74
2024-05-09T15:40:18.920Z,20.58
2024-05-09T15:42:53.286Z,20.54
2024-05-09T15:45:19.957Z,20.38
2024-05-09T15:47:46.774Z,20.42
2024-05-09T15:50:20.441Z,20.36
2024-05-09T15:52:55.312Z,20.28
2024-05-09T15:55:21.919Z,20.09
2024-05-09T15:57:48.622Z,19.98
2024-05-09T16:00:24.703Z,19.97
2024-05-09T16:02:59.917Z,20.12
2024-05-09T16:05:26.921Z,21.64
2024-05-09T16:07:53.915Z,22.10
2024-05-09T16:10:25.850Z,21.12
2024-05-09T16:12:58.590Z,20.33
2024-05-09T16:15:25.244Z,20.04
2024-05-09T16:17:51.940Z,19.88
2024-05-09T16:20:29.562Z,19.85
2024-05-09T16:23:04.854Z,20.02
2024-05-09T16:25:31.559Z,20.24
2024-05-09T16:27:58.357Z,19.85
2024-05-09T16:30:31.777Z,19.61
2024-05-09T16:33:01.970Z,19.81
2024-05-09T16:35:28.745Z,21.52
2024-05-09T16:37:55.480Z,21.17
2024-05-09T16:40:30.064Z,20.85
2024-05-09T16:43:04.437Z,20.36
2024-05-09T16:45:31.398Z,20.23
2024-05-09T16:47:59.572Z,20.51
2024-05-09T16:50:31.569Z,20.43
2024-05-09T16:53:00.437Z,20.22
2024-05-09T16:55:27.364Z,20.40
2024-05-09T16:57:55.108Z,20.38
2024-05-09T17:00:31.609Z,20.24
2024-05-09T17:03:07.212Z,20.15
2024-05-09T17:05:34.889Z,20.07
2024-05-09T17:08:02.090Z,20.23
2024-05-09T17:10:33.057Z,20.00
2024-05-09T17:13:03.211Z,20.03
2024-05-09T17:15:31.026Z,20.34
2024-05-09T17:17:58.078Z,20.42
2024-05-09T17:20:31.865Z,20.52
2024-05-09T17:23:02.448Z,20.61
2024-05-09T17:25:29.355Z,21.12
2024-05-09T17:27:56.683Z,21.26
2024-05-09T17:30:29.423Z,21.59
2024-05-09T17:33:03.219Z,21.34
2024-05-09T17:35:29.911Z,20.68
2024-05-09T17:37:56.876Z,20.33
2024-05-09T17:42:53.329Z,19.68
2024-05-09T17:45:20.666Z,19.49
2024-05-09T17:47:47.711Z,19.32
2024-05-09T17:50:20.997Z,19.25
2024-05-09T17:52:53.705Z,19.14
2024-05-09T17:55:20.376Z,18.95
2024-05-09T17:57:47.052Z,18.79
2024-05-09T18:00:17.449Z,18.65
2024-05-09T18:02:48.287Z,18.48
2024-05-09T18:05:15.039Z,18.32
2024-05-09T18:07:41.752Z,18.21
2024-05-09T18:10:19.008Z,18.13
2024-05-09T18:12:49.050Z,18.04
2024-05-09T18:15:15.657Z,17.95
2024-05-09T18:17:42.656Z,17.88
2024-05-09T18:20:14.141Z,17.78
2024-05-09T18:22:46.244Z,17.82
2024-05-09T18:25:13.149Z,18.45
2024-05-09T18:27:39.795Z,18.96
2024-05-09T18:30:09.300Z,18.51
2024-05-09T18:32:36.228Z,18.17
2024-05-09T18:35:03.241Z,17.93
2024-05-09T18:37:29.967Z,17.75
2024-05-09T18:39:56.689Z,17.56
2024-05-09T18:42:23.235Z,17.42
2024-05-09T18:44:50.658Z,17.27
2024-05-09T18:47:20.010Z,17.18
2024-05-09T18:49:46.936Z,17.14
2024-05-09T18:52:13.631Z,17.09
2024-05-09T18:54:40.303Z,16.98
2024-05-09T18:57:06.881Z,16.90
2024-05-09T18:59:33.558Z,16.85
2024-05-09T19:02:00.265Z,16.83
2024-05-09T19:04:27.133Z,16.79
2024-05-09T19:06:53.949Z,16.66
2024-05-09T19:09:20.524Z,16.59
2024-05-09T19:11:47.115Z,16.53
2024-05-09T19:14:13.877Z,16.49
2024-05-09T19:16:41.892Z,16.48
2024-05-09T19:19:09.871Z,16.44
2024-05-09T19:21:39.113Z,16.38
2024-05-09T19:24:07.842Z,16.33
2024-05-09T19:26:34.572Z,16.30
2024-05-09T19:29:01.121Z,16.24
2024-05-09T19:31:27.761Z,16.20
2024-05-09T19:33:54.408Z,16.14
2024-05-09T19:36:21.027Z,16.07
2024-05-09T19:38:48.772Z,16.03
2024-05-09T19:41:15.426Z,15.95
2024-05-09T19:43:41.994Z,15.88
2024-05-09T19:46:08.657Z,15.82
2024-05-09T19:48:35.505Z,15.80
2024-05-09T19:51:02.966Z,15.74
2024-05-09T19:53:29.598Z,15.66
2024-05-09T19:55:57.759Z,15.62
2024-05-09T19:58:24.908Z,15.60
2024-05-09T20:00:51.762Z,15.51
2024-05-09T20:03:18.442Z,15.42
2024-05-09T20:05:46.735Z,15.29
2024-05-09T20:08:13.873Z,15.23
2024-05-09T20:10:40.520Z,15.17
2024-05-09T20:13:08.281Z,15.17
2024-05-09T20:15:36.643Z,15.17
2024-05-09T20:18:04.321Z,15.14
2024-05-09T20:20:37.692Z,15.11
2024-05-09T20:23:08.517Z,15.07
2024-05-09T20:25:35.096Z,15.04
2024-05-09T20:28:01.805Z,15.03
2024-05-09T20:30:32.439Z,14.98
2024-05-09T20:33:03.550Z,14.95
2024-05-09T20:35:33.915Z,14.82
2024-05-09T20:38:01.802Z,14.74
2024-05-09T20:40:33.822Z,14.71
2024-05-09T20:43:04.097Z,14.60
2024-05-09T20:45:30.948Z,14.51
2024-05-09T20:47:57.966Z,14.47
2024-05-09T20:50:35.543Z,14.41
2024-05-09T20:53:14.516Z,14.41
2024-05-09T20:55:43.083Z,14.39
2024-05-09T20:58:10.478Z,14.38
2024-05-09T21:00:40.959Z,14.34
2024-05-09T21:03:11.471Z,14.29
2024-05-09T21:05:38.954Z,14.23
2024-05-09T21:08:06.184Z,14.18
2024-05-09T21:10:34.095Z,14.07
2024-05-09T21:13:03.016Z,13.98
2024-05-09T21:15:30.602Z,13.94
2024-05-09T21:17:57.412Z,13.95
2024-05-09T21:20:30.584Z,13.93
2024-05-09T21:22:58.903Z,13.92
2024-05-09T21:25:25.791Z,13.89
2024-05-09T21:27:52.743Z,13.87
2024-05-09T21:30:31.399Z,13.80
2024-05-09T21:33:05.862Z,13.77
2024-05-09T21:35:32.658Z,13.82
2024-05-09T21:37:59.265Z,13.84
2024-05-09T21:40:33.346Z,13.79
2024-05-09T21:43:02.414Z,13.73
2024-05-09T21:45:29.424Z,13.67
2024-05-09T21:47:56.224Z,13.52
2024-05-09T21:50:28.540Z,13.34
2024-05-09T21:53:02.844Z,13.39
2024-05-09T21:55:30.110Z,13.41
2024-05-09T21:57:57.046Z,13.53
2024-05-09T22:00:32.019Z,13.59
2024-05-09T22:03:03.138Z,13.62
2024-05-09T22:05:30.106Z,13.60
2024-05-09T22:07:57.250Z,13.54
2024-05-09T22:10:30.538Z,13.45
2024-05-09T22:13:00.822Z,13.36
2024-05-09T22:15:27.449Z,13.27
2024-05-09T22:17:56.625Z,13.31
2024-05-09T22:20:32.891Z,13.29
2024-05-09T22:23:03.295Z,13.26
2024-05-09T22:25:31.150Z,13.31
2024-05-09T22:27:58.650Z,13.30
2024-05-09T22:30:34.045Z,13.30
2024-05-09T22:33:05.195Z,13.32
2024-05-09T22:35:32.000Z,13.34
2024-05-09T22:37:58.602Z,13.30
2024-05-09T22:40:37.757Z,13.18
2024-05-09T22:43:12.311Z,13.10
2024-05-09T22:45:39.283Z,13.05
2024-05-09T22:48:06.681Z,13.06
2024-05-09T22:50:33.875Z,13.07
2024-05-09T22:53:00.985Z,13.10
2024-05-09T22:55:27.697Z,13.09
2024-05-09T22:57:54.332Z,13.10
2024-05-09T23:00:29.271Z,13.09
2024-05-09T23:02:59.800Z,13.06
2024-05-09T23:05:26.703Z,13.12
2024-05-09T23:07:53.574Z,13.16
2024-05-09T23:10:27.732Z,13.10
2024-05-09T23:12:59.154Z,13.08
2024-05-09T23:15:25.836Z,13.11
2024-05-09T23:17:52.591Z,13.17
2024-05-09T23:20:29.781Z,13.13
2024-05-09T23:23:03.738Z,13.16
2024-05-09T23:25:30.417Z,13.13
2024-05-09T23:27:57.104Z,13.13
2024-05-09T23:30:33.301Z,13.13
2024-05-09T23:33:05.678Z,13.17
2024-05-09T23:35:32.407Z,13.16
2024-05-09T23:37:59.095Z,13.11
2024-05-09T23:40:36.803Z,13.11
2024-05-09T23:43:06.816Z,13.03
2024-05-09T23:45:33.658Z,12.94
2024-05-09T23:48:00.727Z,12.89
2024-05-09T23:50:34.302Z,12.82
2024-05-09T23:53:04.238Z,12.84
2024-05-09T23:55:31.805Z,12.84
2024-05-09T23:57:58.941Z,12.82
